createdAt,value
2019-01-31T00:00:30.504Z,8.40
2019-01-31T00:01:01.675Z,8.42
2019-01-31T00:01:32.843Z,8.44
2019-01-31T00:02:04.003Z,8.46
2019-01-31T00:02:35.166Z,8.46
2019-01-31T00:03:06.329Z,8.47
2019-01-31T00:03:37.495Z,8.50
2019-01-31T00:04:08.702Z,8.54
2019-01-31T00:04:39.883Z,8.53
2019-01-31T00:05:11.046Z,8.54
2019-01-31T00:05:42.218Z,8.52
2019-01-31T00:06:13.385Z,8.50
2019-01-31T00:06:44.566Z,8.50
2019-01-31T00:07:15.736Z,8.50
2019-01-31T00:07:46.920Z,8.50
2019-01-31T00:08:18.132Z,8.47
2019-01-31T00:08:49.295Z,8.46
2019-01-31T00:09:20.479Z,8.44
2019-01-31T00:09:51.641Z,8.43
2019-01-31T00:10:22.829Z,8.41
2019-01-31T00:10:54.010Z,8.39
2019-01-31T00:11:25.172Z,8.38
2019-01-31T00:11:56.400Z,8.36
2019-01-31T00:12:27.570Z,8.36
2019-01-31T00:12:58.777Z,8.35
2019-01-31T00:13:29.945Z,8.35
2019-01-31T00:14:01.111Z,8.35
2019-01-31T00:14:32.289Z,8.36
2019-01-31T00:15:03.452Z,8.36
2019-01-31T00:15:34.614Z,8.35
2019-01-31T00:16:05.794Z,8.36
2019-01-31T00:16:36.959Z,8.36
2019-01-31T00:17:08.133Z,8.37
2019-01-31T00:17:39.307Z,8.37
2019-01-31T00:18:10.489Z,8.37
2019-01-31T00:18:41.641Z,8.40
2019-01-31T00:19:12.872Z,8.38
2019-01-31T00:19:44.043Z,8.39
2019-01-31T00:20:15.240Z,8.40
2019-01-31T00:20:46.416Z,8.40
2019-01-31T00:21:17.582Z,8.39
2019-01-31T00:21:48.749Z,8.38
2019-01-31T00:22:19.924Z,8.37
2019-01-31T00:22:51.092Z,8.37
2019-01-31T00:23:22.276Z,8.37
2019-01-31T00:23:53.456Z,8.34
2019-01-31T00:24:24.670Z,8.29
2019-01-31T00:24:55.856Z,8.27
2019-01-31T00:25:27.041Z,8.27
2019-01-31T00:25:58.262Z,8.29
2019-01-31T00:26:29.440Z,8.29
2019-01-31T00:27:00.598Z,8.32
2019-01-31T00:27:31.763Z,8.32
2019-01-31T00:28:02.926Z,8.34
2019-01-31T00:28:34.112Z,8.34
2019-01-31T00:29:05.280Z,8.35
2019-01-31T00:29:36.451Z,8.37
2019-01-31T00:30:07.622Z,8.36
2019-01-31T00:30:38.808Z,8.36
2019-01-31T00:31:10.162Z,8.36
2019-01-31T00:31:41.272Z,8.36
2019-01-31T00:32:12.459Z,8.39
2019-01-31T00:32:43.626Z,8.40
2019-01-31T00:33:14.790Z,8.42
2019-01-31T00:33:45.982Z,8.44
2019-01-31T00:34:17.157Z,8.46
2019-01-31T00:34:48.385Z,8.47
2019-01-31T00:35:19.564Z,8.48
2019-01-31T00:35:50.721Z,8.50
2019-01-31T00:36:21.889Z,8.51
2019-01-31T00:36:53.041Z,8.53
2019-01-31T00:37:24.220Z,8.53
2019-01-31T00:37:55.404Z,8.49
2019-01-31T00:38:26.570Z,8.51
2019-01-31T00:38:57.752Z,8.48
2019-01-31T00:39:28.926Z,8.48
2019-01-31T00:40:00.200Z,8.47
2019-01-31T00:40:31.347Z,8.47
2019-01-31T00:41:02.527Z,8.44
2019-01-31T00:41:33.705Z,8.43
2019-01-31T00:42:04.898Z,8.41
2019-01-31T00:42:36.110Z,8.41
2019-01-31T00:43:07.325Z,8.38
2019-01-31T00:43:38.534Z,8.40
2019-01-31T00:44:09.746Z,8.40
2019-01-31T00:44:40.960Z,8.40
2019-01-31T00:45:12.161Z,8.38
2019-01-31T00:45:43.409Z,8.37
2019-01-31T00:46:14.621Z,8.38
2019-01-31T00:46:45.909Z,8.38
2019-01-31T00:47:17.119Z,8.38
2019-01-31T00:47:48.319Z,8.37
2019-01-31T00:48:19.543Z,8.37
2019-01-31T00:48:52.862Z,8.37
2019-01-31T00:49:24.093Z,8.35
2019-01-31T00:49:55.283Z,8.35
2019-01-31T00:50:26.481Z,8.36
2019-01-31T00:50:57.753Z,8.35
2019-01-31T00:51:28.909Z,8.33
2019-01-31T00:52:02.197Z,8.31
2019-01-31T00:52:33.353Z,8.29
2019-01-31T00:53:04.513Z,8.25
2019-01-31T00:53:35.675Z,8.23
2019-01-31T00:54:06.933Z,8.21
2019-01-31T00:54:38.091Z,8.20
2019-01-31T00:55:09.292Z,8.22
2019-01-31T00:55:40.485Z,8.21
2019-01-31T00:56:11.649Z,8.21
2019-01-31T00:56:42.818Z,8.22
2019-01-31T00:57:14.043Z,8.20
2019-01-31T00:57:45.216Z,8.20
2019-01-31T00:58:16.421Z,8.20
2019-01-31T00:58:47.586Z,8.16
2019-01-31T00:59:18.766Z,7.30
2019-01-31T00:59:49.931Z,8.14
2019-01-31T01:00:21.097Z,8.14
2019-01-31T01:00:52.273Z,8.13
2019-01-31T01:01:23.487Z,8.12
2019-01-31T01:01:54.657Z,8.11
2019-01-31T01:02:25.818Z,8.10
2019-01-31T01:02:56.998Z,8.08
2019-01-31T01:03:28.183Z,8.08
2019-01-31T01:03:59.394Z,8.07
2019-01-31T01:04:30.575Z,8.06
2019-01-31T01:05:01.761Z,8.07
2019-01-31T01:05:32.959Z,8.05
2019-01-31T01:06:04.129Z,8.04
2019-01-31T01:06:35.295Z,8.04
2019-01-31T01:07:06.478Z,8.04
2019-01-31T01:07:37.660Z,8.03
2019-01-31T01:08:08.880Z,8.04
2019-01-31T01:08:40.093Z,8.03
2019-01-31T01:09:11.258Z,8.03
2019-01-31T01:09:42.423Z,8.02
2019-01-31T01:10:13.594Z,8.02
2019-01-31T01:10:44.762Z,8.01
2019-01-31T01:11:15.951Z,7.99
2019-01-31T01:11:47.110Z,7.96
2019-01-31T01:12:18.273Z,7.94
2019-01-31T01:12:49.452Z,7.91
2019-01-31T01:13:20.592Z,7.90
2019-01-31T01:13:51.778Z,7.88
2019-01-31T01:14:22.967Z,7.89
2019-01-31T01:14:54.122Z,7.88
2019-01-31T01:15:25.300Z,7.88
2019-01-31T01:15:56.470Z,7.89
2019-01-31T01:16:27.645Z,7.87
2019-01-31T01:16:58.814Z,7.88
2019-01-31T01:17:29.976Z,7.87
2019-01-31T01:18:01.163Z,7.87
2019-01-31T01:18:34.679Z,7.85
2019-01-31T01:19:05.861Z,7.85
2019-01-31T01:19:37.024Z,7.85
2019-01-31T01:20:08.193Z,7.84
2019-01-31T01:20:39.367Z,7.82
2019-01-31T01:21:10.581Z,7.83
2019-01-31T01:21:41.745Z,7.82
2019-01-31T01:22:12.913Z,7.83
2019-01-31T01:22:44.088Z,7.81
2019-01-31T01:23:15.292Z,7.81
2019-01-31T01:23:46.885Z,7.79
2019-01-31T01:24:18.049Z,7.76
2019-01-31T01:24:49.215Z,7.74
2019-01-31T01:25:20.456Z,7.71
2019-01-31T01:25:51.618Z,7.69
2019-01-31T01:26:22.782Z,7.69
2019-01-31T01:26:53.955Z,7.68
2019-01-31T01:27:25.102Z,7.70
2019-01-31T01:27:56.285Z,7.68
2019-01-31T01:28:27.459Z,7.69
2019-01-31T01:28:58.656Z,7.66
2019-01-31T01:29:29.821Z,7.66
2019-01-31T01:30:00.982Z,7.68
2019-01-31T01:30:32.190Z,7.67
2019-01-31T01:31:03.357Z,7.67
2019-01-31T01:31:34.524Z,7.70
2019-01-31T01:32:05.797Z,7.69
2019-01-31T01:32:36.954Z,7.70
2019-01-31T01:33:08.134Z,7.70
2019-01-31T01:33:39.310Z,7.71
2019-01-31T01:34:10.489Z,7.70
2019-01-31T01:34:41.657Z,7.68
2019-01-31T01:35:12.891Z,7.67
2019-01-31T01:35:44.061Z,7.66
2019-01-31T01:36:15.240Z,7.65
2019-01-31T01:36:46.419Z,7.63
2019-01-31T01:37:17.586Z,7.63
2019-01-31T01:37:48.894Z,7.61
2019-01-31T01:38:20.052Z,7.59
2019-01-31T01:38:51.231Z,7.58
2019-01-31T01:39:22.425Z,7.59
2019-01-31T01:39:53.591Z,7.56
2019-01-31T01:40:24.758Z,7.56
2019-01-31T01:40:55.923Z,7.54
2019-01-31T01:41:27.085Z,7.52
2019-01-31T01:41:58.254Z,7.51
2019-01-31T01:42:29.436Z,7.49
2019-01-31T01:43:00.669Z,7.49
2019-01-31T01:43:31.842Z,7.46
2019-01-31T01:44:03.027Z,7.46
2019-01-31T01:44:34.214Z,7.46
2019-01-31T01:45:05.377Z,7.46
2019-01-31T01:45:36.558Z,7.47
2019-01-31T01:46:07.723Z,7.44
2019-01-31T01:46:38.908Z,7.44
2019-01-31T01:47:10.079Z,7.43
2019-01-31T01:47:41.253Z,7.41
2019-01-31T01:48:12.435Z,7.39
2019-01-31T01:48:43.599Z,7.40
2019-01-31T01:49:14.804Z,7.39
2019-01-31T01:49:46.079Z,7.38
2019-01-31T01:50:17.315Z,7.36
2019-01-31T01:50:48.527Z,7.38
2019-01-31T01:51:19.740Z,7.35
2019-01-31T01:51:50.945Z,7.36
2019-01-31T01:52:22.144Z,7.34
2019-01-31T01:52:53.357Z,7.32
2019-01-31T01:53:24.583Z,7.30
2019-01-31T01:53:55.830Z,7.29
2019-01-31T01:54:27.089Z,7.30
2019-01-31T01:54:58.290Z,7.28
2019-01-31T01:55:29.508Z,7.27
2019-01-31T01:56:00.746Z,7.27
2019-01-31T01:56:32.019Z,7.26
2019-01-31T01:57:03.234Z,7.26
2019-01-31T01:57:34.458Z,7.26
2019-01-31T01:58:05.700Z,7.29
2019-01-31T01:58:36.924Z,7.26
2019-01-31T01:59:08.187Z,7.26
2019-01-31T01:59:39.449Z,7.27
2019-01-31T02:00:10.668Z,7.26
2019-01-31T02:00:41.880Z,7.25
2019-01-31T02:01:13.085Z,7.23
2019-01-31T02:01:44.310Z,7.20
2019-01-31T02:02:15.564Z,7.26
2019-01-31T02:02:46.776Z,7.31
2019-01-31T02:03:18.007Z,7.32
2019-01-31T02:03:49.221Z,7.32
2019-01-31T02:04:20.434Z,7.32
2019-01-31T02:04:51.651Z,7.31
2019-01-31T02:05:22.898Z,7.29
2019-01-31T02:05:54.133Z,7.29
2019-01-31T02:06:25.357Z,7.28
2019-01-31T02:06:56.551Z,7.26
2019-01-31T02:07:27.757Z,7.24
2019-01-31T02:07:58.966Z,7.21
2019-01-31T02:08:30.188Z,7.20
2019-01-31T02:09:01.482Z,7.20
2019-01-31T02:09:32.685Z,7.17
2019-01-31T02:10:03.949Z,7.15
2019-01-31T02:10:35.160Z,7.14
2019-01-31T02:11:06.413Z,7.15
2019-01-31T02:11:37.625Z,7.14
2019-01-31T02:12:08.838Z,7.13
2019-01-31T02:12:40.029Z,7.13
2019-01-31T02:13:11.241Z,7.12
2019-01-31T02:13:42.456Z,7.13
2019-01-31T02:14:13.658Z,7.13
2019-01-31T02:14:44.895Z,7.14
2019-01-31T02:15:16.082Z,7.15
2019-01-31T02:15:47.346Z,7.12
2019-01-31T02:16:18.571Z,7.10
2019-01-31T02:16:51.473Z,7.09
2019-01-31T02:17:22.951Z,7.09
2019-01-31T02:17:55.139Z,7.07
2019-01-31T02:18:26.360Z,7.05
2019-01-31T02:18:57.586Z,7.03
2019-01-31T02:19:28.897Z,7.02
2019-01-31T02:20:00.353Z,7.02
2019-01-31T02:20:31.609Z,7.03
2019-01-31T02:21:02.865Z,7.04
2019-01-31T02:21:34.075Z,7.05
2019-01-31T02:22:05.325Z,7.06
2019-01-31T02:22:36.533Z,7.06
2019-01-31T02:23:07.749Z,7.05
2019-01-31T02:23:39.302Z,7.04
2019-01-31T02:24:10.501Z,7.05
2019-01-31T02:24:41.693Z,7.02
2019-01-31T02:25:12.901Z,6.98
2019-01-31T02:25:44.114Z,6.97
2019-01-31T02:26:15.367Z,6.97
2019-01-31T02:26:46.574Z,6.97
2019-01-31T02:27:17.793Z,6.96
2019-01-31T02:27:49.000Z,6.94
2019-01-31T02:28:20.212Z,6.95
2019-01-31T02:28:51.441Z,6.93
2019-01-31T02:29:22.678Z,6.91
2019-01-31T02:29:53.913Z,6.94
2019-01-31T02:30:25.115Z,6.91
2019-01-31T02:30:56.334Z,6.92
2019-01-31T02:31:27.610Z,6.93
2019-01-31T02:31:58.848Z,6.96
2019-01-31T02:32:30.064Z,7.00
2019-01-31T02:33:01.282Z,7.03
2019-01-31T02:33:32.493Z,7.04
2019-01-31T02:34:03.702Z,7.07
2019-01-31T02:34:35.052Z,7.08
2019-01-31T02:35:06.219Z,7.07
2019-01-31T02:35:37.491Z,7.06
2019-01-31T02:36:08.692Z,7.05
2019-01-31T02:36:39.915Z,7.03
2019-01-31T02:37:11.122Z,7.03
2019-01-31T02:37:42.330Z,7.04
2019-01-31T02:38:13.527Z,7.04
2019-01-31T02:38:44.739Z,7.05
2019-01-31T02:39:15.969Z,7.06
2019-01-31T02:39:47.175Z,7.05
2019-01-31T02:40:18.399Z,7.05
2019-01-31T02:40:49.651Z,7.03
2019-01-31T02:41:20.857Z,7.02
2019-01-31T02:41:52.071Z,7.01
2019-01-31T02:42:23.311Z,6.99
2019-01-31T02:42:54.528Z,6.99
2019-01-31T02:43:25.748Z,6.98
2019-01-31T02:43:57.003Z,6.96
2019-01-31T02:44:28.392Z,6.97
2019-01-31T02:44:59.585Z,6.95
2019-01-31T02:45:30.810Z,6.91
2019-01-31T02:46:02.028Z,6.92
2019-01-31T02:46:33.261Z,6.90
2019-01-31T02:47:04.483Z,6.92
2019-01-31T02:47:35.692Z,6.91
2019-01-31T02:48:06.895Z,6.91
2019-01-31T02:48:38.106Z,6.91
2019-01-31T02:49:09.318Z,6.92
2019-01-31T02:49:40.588Z,6.94
2019-01-31T02:50:11.799Z,6.93
2019-01-31T02:50:43.011Z,6.92
2019-01-31T02:51:14.241Z,6.92
2019-01-31T02:51:45.434Z,6.92
2019-01-31T02:52:16.673Z,6.92
2019-01-31T02:52:47.888Z,6.89
2019-01-31T02:53:19.145Z,6.86
2019-01-31T02:53:50.352Z,6.82
2019-01-31T02:54:21.563Z,6.79
2019-01-31T02:54:52.788Z,6.76
2019-01-31T02:55:24.001Z,6.74
2019-01-31T02:55:55.222Z,6.71
2019-01-31T02:56:26.436Z,6.66
2019-01-31T02:56:57.657Z,6.62
2019-01-31T02:57:28.890Z,6.63
2019-01-31T02:58:00.104Z,6.62
2019-01-31T02:58:31.469Z,6.62
2019-01-31T02:59:02.671Z,6.63
2019-01-31T02:59:33.937Z,6.64
2019-01-31T03:00:05.201Z,6.64
2019-01-31T03:00:36.419Z,6.65
2019-01-31T03:01:07.647Z,6.67
2019-01-31T03:01:38.895Z,6.66
2019-01-31T03:02:10.109Z,6.66
2019-01-31T03:02:41.377Z,6.62
2019-01-31T03:03:12.657Z,6.55
2019-01-31T03:03:43.892Z,6.46
2019-01-31T03:04:15.119Z,6.39
2019-01-31T03:04:46.359Z,6.34
2019-01-31T03:05:17.570Z,6.31
2019-01-31T03:05:48.789Z,6.31
2019-01-31T03:06:20.002Z,6.31
2019-01-31T03:06:51.223Z,6.32
2019-01-31T03:07:22.790Z,6.29
2019-01-31T03:07:54.037Z,6.24
2019-01-31T03:08:25.253Z,6.18
2019-01-31T03:08:56.458Z,6.16
2019-01-31T03:09:27.692Z,6.09
2019-01-31T03:09:58.892Z,6.02
2019-01-31T03:10:30.097Z,6.02
2019-01-31T03:11:01.315Z,6.00
2019-01-31T03:11:32.516Z,5.98
2019-01-31T03:12:03.727Z,5.95
2019-01-31T03:12:34.928Z,5.89
2019-01-31T03:13:06.587Z,5.87
2019-01-31T03:13:37.815Z,5.81
2019-01-31T03:14:10.441Z,5.81
2019-01-31T03:14:41.988Z,5.82
2019-01-31T03:15:13.205Z,5.79
2019-01-31T03:15:44.473Z,5.76
2019-01-31T03:16:15.684Z,5.77
2019-01-31T03:16:47.010Z,5.77
2019-01-31T03:17:18.260Z,5.75
2019-01-31T03:17:49.466Z,5.73
2019-01-31T03:18:20.676Z,5.73
2019-01-31T03:18:51.908Z,5.71
2019-01-31T03:19:23.134Z,5.68
2019-01-31T03:19:54.342Z,5.67
2019-01-31T03:20:25.556Z,5.68
2019-01-31T03:20:56.811Z,5.67
2019-01-31T03:21:28.034Z,5.64
2019-01-31T03:21:59.240Z,5.64
2019-01-31T03:22:30.532Z,5.64
2019-01-31T03:23:01.757Z,5.65
2019-01-31T03:23:32.978Z,5.66
2019-01-31T03:24:04.192Z,5.67
2019-01-31T03:24:35.409Z,5.69
2019-01-31T03:25:06.623Z,5.68
2019-01-31T03:25:37.832Z,5.68
2019-01-31T03:26:09.054Z,5.67
2019-01-31T03:26:40.273Z,5.68
2019-01-31T03:27:11.497Z,5.66
2019-01-31T03:27:42.721Z,5.65
2019-01-31T03:28:14.003Z,5.58
2019-01-31T03:28:45.197Z,5.56
2019-01-31T03:29:16.396Z,5.56
2019-01-31T03:29:47.607Z,5.52
2019-01-31T03:30:18.892Z,5.53
2019-01-31T03:30:50.096Z,5.54
2019-01-31T03:31:21.336Z,5.56
2019-01-31T03:31:52.545Z,5.59
2019-01-31T03:32:23.753Z,5.62
2019-01-31T03:32:54.974Z,5.64
2019-01-31T03:33:26.187Z,5.61
2019-01-31T03:33:57.390Z,5.61
2019-01-31T03:34:28.621Z,5.60
2019-01-31T03:34:59.874Z,5.60
2019-01-31T03:35:31.144Z,5.60
2019-01-31T03:36:02.360Z,5.62
2019-01-31T03:36:33.574Z,5.61
2019-01-31T03:37:04.831Z,5.62
2019-01-31T03:37:36.103Z,5.64
2019-01-31T03:38:07.356Z,5.66
2019-01-31T03:38:38.561Z,5.66
2019-01-31T03:39:09.771Z,5.67
2019-01-31T03:39:40.977Z,5.69
2019-01-31T03:40:12.197Z,5.70
2019-01-31T03:40:43.446Z,5.69
2019-01-31T03:41:14.692Z,5.20
2019-01-31T03:41:45.915Z,5.65
2019-01-31T03:42:17.181Z,5.64
2019-01-31T03:42:48.407Z,5.65
2019-01-31T03:43:19.630Z,5.61
2019-01-31T03:43:50.852Z,5.61
2019-01-31T03:44:22.083Z,5.61
2019-01-31T03:44:53.297Z,5.64
2019-01-31T03:45:24.500Z,5.63
2019-01-31T03:45:55.719Z,5.61
2019-01-31T03:46:26.974Z,5.57
2019-01-31T03:46:58.179Z,5.58
2019-01-31T03:47:29.465Z,5.59
2019-01-31T03:48:00.695Z,5.60
2019-01-31T03:48:31.912Z,5.60
2019-01-31T03:49:03.135Z,5.56
2019-01-31T03:49:34.391Z,5.56
2019-01-31T03:50:06.887Z,5.56
2019-01-31T03:50:38.409Z,5.53
2019-01-31T03:51:09.610Z,5.55
2019-01-31T03:51:40.822Z,5.51
2019-01-31T03:52:12.025Z,5.52
2019-01-31T03:52:43.280Z,5.52
2019-01-31T03:53:14.492Z,5.54
2019-01-31T03:53:45.710Z,5.54
2019-01-31T03:54:16.925Z,5.57
2019-01-31T03:54:48.151Z,5.60
2019-01-31T03:55:19.374Z,5.61
2019-01-31T03:55:50.605Z,5.65
2019-01-31T03:56:21.815Z,5.66
2019-01-31T03:56:53.026Z,5.68
2019-01-31T03:57:24.253Z,5.68
2019-01-31T03:57:55.527Z,5.62
2019-01-31T03:58:26.739Z,5.61
2019-01-31T03:58:57.951Z,5.61
2019-01-31T03:59:29.161Z,5.61
2019-01-31T04:00:00.417Z,5.65
2019-01-31T04:00:31.596Z,5.68
2019-01-31T04:01:02.841Z,5.69
2019-01-31T04:01:34.069Z,5.72
2019-01-31T04:02:05.295Z,5.74
2019-01-31T04:02:36.515Z,5.75
2019-01-31T04:03:08.001Z,5.78
2019-01-31T04:03:39.239Z,5.79
2019-01-31T04:04:10.460Z,5.79
2019-01-31T04:04:41.692Z,5.78
2019-01-31T04:05:12.906Z,5.78
2019-01-31T04:05:44.127Z,5.79
2019-01-31T04:06:15.356Z,5.78
2019-01-31T04:06:46.566Z,5.78
2019-01-31T04:07:17.801Z,5.79
2019-01-31T04:07:49.029Z,5.81
2019-01-31T04:08:20.282Z,5.83
2019-01-31T04:08:51.508Z,5.85
2019-01-31T04:09:22.651Z,5.86
2019-01-31T04:09:53.874Z,5.88
2019-01-31T04:10:25.081Z,5.90
2019-01-31T04:10:56.293Z,5.88
2019-01-31T04:11:27.548Z,5.88
2019-01-31T04:11:58.768Z,5.88
2019-01-31T04:12:30.002Z,5.88
2019-01-31T04:13:01.262Z,5.89
2019-01-31T04:13:32.470Z,5.89
2019-01-31T04:14:03.722Z,5.90
2019-01-31T04:14:34.935Z,5.91
2019-01-31T04:15:06.134Z,5.94
2019-01-31T04:15:37.416Z,5.96
2019-01-31T04:16:08.623Z,5.95
2019-01-31T04:16:39.829Z,5.95
2019-01-31T04:17:11.047Z,5.96
2019-01-31T04:17:42.325Z,6.00
2019-01-31T04:18:13.588Z,6.00
2019-01-31T04:18:44.816Z,6.00
2019-01-31T04:19:16.024Z,5.99
2019-01-31T04:19:47.305Z,6.00
2019-01-31T04:20:18.505Z,5.94
2019-01-31T04:20:51.202Z,5.89
2019-01-31T04:21:22.567Z,5.89
2019-01-31T04:21:53.806Z,5.88
2019-01-31T04:22:25.006Z,5.90
2019-01-31T04:22:56.215Z,5.90
2019-01-31T04:23:27.475Z,5.89
2019-01-31T04:23:58.694Z,5.91
2019-01-31T04:24:29.931Z,5.90
2019-01-31T04:25:01.139Z,5.93
2019-01-31T04:25:34.432Z,5.92
2019-01-31T04:26:05.663Z,5.92
2019-01-31T04:26:36.874Z,5.87
2019-01-31T04:27:08.096Z,5.84
2019-01-31T04:27:39.304Z,5.83
2019-01-31T04:28:10.522Z,5.81
2019-01-31T04:28:41.727Z,5.82
2019-01-31T04:29:12.941Z,5.81
2019-01-31T04:29:44.153Z,5.84
2019-01-31T04:30:15.366Z,5.86
2019-01-31T04:30:46.635Z,5.87
2019-01-31T04:31:17.846Z,5.88
2019-01-31T04:31:49.104Z,5.88
2019-01-31T04:32:20.324Z,5.86
2019-01-31T04:32:51.555Z,5.88
2019-01-31T04:33:22.780Z,5.88
2019-01-31T04:33:53.997Z,5.90
2019-01-31T04:34:25.206Z,5.92
2019-01-31T04:34:56.424Z,5.93
2019-01-31T04:35:27.640Z,5.90
2019-01-31T04:35:58.898Z,5.84
2019-01-31T04:36:30.125Z,5.79
2019-01-31T04:37:01.374Z,5.75
2019-01-31T04:37:32.582Z,5.73
2019-01-31T04:38:03.825Z,5.75
2019-01-31T04:38:35.036Z,5.74
2019-01-31T04:39:06.292Z,5.76
2019-01-31T04:39:37.498Z,5.79
2019-01-31T04:40:08.713Z,5.81
2019-01-31T04:40:39.985Z,5.84
2019-01-31T04:41:11.201Z,5.87
2019-01-31T04:41:42.474Z,5.87
2019-01-31T04:42:13.677Z,5.87
2019-01-31T04:42:45.563Z,5.90
2019-01-31T04:43:16.782Z,5.89
2019-01-31T04:43:48.002Z,5.89
2019-01-31T04:44:19.200Z,5.91
2019-01-31T04:44:50.715Z,5.92
2019-01-31T04:45:21.954Z,5.94
2019-01-31T04:45:53.178Z,5.95
2019-01-31T04:46:24.393Z,5.96
2019-01-31T04:46:55.645Z,5.97
2019-01-31T04:47:26.860Z,5.97
2019-01-31T04:47:58.065Z,5.99
2019-01-31T04:48:29.273Z,6.00
2019-01-31T04:49:00.491Z,6.03
2019-01-31T04:49:31.706Z,6.03
2019-01-31T04:50:02.985Z,6.01
2019-01-31T04:50:34.190Z,6.00
2019-01-31T04:51:05.419Z,6.01
2019-01-31T04:51:36.658Z,6.01
2019-01-31T04:52:10.165Z,6.01
2019-01-31T04:52:41.366Z,6.04
2019-01-31T04:53:12.568Z,6.03
2019-01-31T04:53:43.781Z,6.00
2019-01-31T04:54:14.998Z,6.00
2019-01-31T04:54:46.195Z,6.00
2019-01-31T04:55:17.517Z,6.01
2019-01-31T04:55:48.734Z,6.00
2019-01-31T04:56:19.940Z,6.02
2019-01-31T04:56:51.165Z,6.05
2019-01-31T04:57:22.415Z,6.05
2019-01-31T04:57:53.618Z,6.07
2019-01-31T04:58:24.836Z,6.07
2019-01-31T04:58:56.048Z,6.05
2019-01-31T04:59:27.254Z,6.04
2019-01-31T04:59:58.499Z,6.05
2019-01-31T05:00:29.703Z,6.04
2019-01-31T05:01:00.850Z,6.09
2019-01-31T05:01:32.052Z,6.09
2019-01-31T05:02:03.288Z,6.10
2019-01-31T05:02:34.551Z,6.12
2019-01-31T05:03:05.762Z,6.14
2019-01-31T05:03:36.989Z,6.15
2019-01-31T05:04:08.199Z,6.17
2019-01-31T05:04:39.416Z,6.16
2019-01-31T05:05:10.615Z,6.13
2019-01-31T05:05:41.826Z,6.11
2019-01-31T05:06:13.172Z,6.07
2019-01-31T05:06:44.357Z,6.07
2019-01-31T05:07:15.639Z,6.09
2019-01-31T05:07:46.905Z,6.12
2019-01-31T05:08:18.128Z,6.12
2019-01-31T05:08:49.342Z,6.15
2019-01-31T05:09:20.939Z,6.16
2019-01-31T05:09:52.183Z,6.16
2019-01-31T05:10:23.401Z,6.15
2019-01-31T05:10:54.614Z,6.17
2019-01-31T05:11:25.830Z,6.17
2019-01-31T05:11:57.046Z,6.17
2019-01-31T05:12:28.255Z,6.18
2019-01-31T05:12:59.507Z,6.19
2019-01-31T05:13:30.711Z,6.18
2019-01-31T05:14:01.929Z,6.19
2019-01-31T05:14:33.172Z,6.20
2019-01-31T05:15:04.398Z,6.23
2019-01-31T05:15:35.632Z,6.23
2019-01-31T05:16:06.840Z,6.24
2019-01-31T05:16:38.049Z,6.25
2019-01-31T05:17:09.262Z,6.24
2019-01-31T05:17:40.465Z,6.24
2019-01-31T05:18:11.765Z,6.23
2019-01-31T05:18:42.976Z,6.22
2019-01-31T05:19:14.240Z,6.18
2019-01-31T05:19:45.504Z,6.16
2019-01-31T05:20:16.729Z,6.13
2019-01-31T05:20:47.928Z,6.12
2019-01-31T05:21:21.041Z,6.13
2019-01-31T05:21:52.154Z,6.12
2019-01-31T05:22:23.366Z,6.14
2019-01-31T05:22:54.585Z,6.13
2019-01-31T05:23:25.811Z,6.15
2019-01-31T05:23:57.031Z,6.16
2019-01-31T05:24:28.294Z,6.18
2019-01-31T05:24:59.499Z,6.19
2019-01-31T05:25:30.713Z,6.18
2019-01-31T05:26:01.933Z,6.19
2019-01-31T05:26:33.136Z,6.19
2019-01-31T05:27:04.582Z,6.17
2019-01-31T05:27:35.832Z,6.17
2019-01-31T05:28:07.102Z,6.18
2019-01-31T05:28:38.312Z,6.20
2019-01-31T05:29:09.518Z,6.20
2019-01-31T05:29:40.767Z,6.20
2019-01-31T05:30:11.953Z,6.19
2019-01-31T05:30:43.180Z,6.19
2019-01-31T05:31:14.349Z,6.19
2019-01-31T05:31:45.564Z,6.20
2019-01-31T05:32:16.822Z,6.22
2019-01-31T05:32:48.022Z,6.23
2019-01-31T05:33:19.259Z,6.24
2019-01-31T05:33:50.701Z,6.23
2019-01-31T05:34:21.923Z,6.26
2019-01-31T05:34:53.150Z,6.28
2019-01-31T05:35:25.088Z,6.30
2019-01-31T05:35:56.292Z,6.33
2019-01-31T05:36:27.508Z,6.33
2019-01-31T05:36:58.736Z,6.35
2019-01-31T05:37:29.958Z,6.35
2019-01-31T05:38:01.175Z,6.36
2019-01-31T05:38:32.409Z,6.35
2019-01-31T05:39:03.672Z,6.37
2019-01-31T05:39:34.936Z,6.39
2019-01-31T05:40:06.134Z,6.38
2019-01-31T05:40:37.378Z,6.39
2019-01-31T05:41:08.612Z,6.39
2019-01-31T05:41:39.849Z,6.40
2019-01-31T05:42:11.069Z,6.39
2019-01-31T05:42:42.297Z,6.38
2019-01-31T05:43:13.571Z,6.36
2019-01-31T05:43:44.772Z,6.34
2019-01-31T05:44:15.986Z,6.35
2019-01-31T05:44:47.205Z,6.36
2019-01-31T05:45:18.407Z,6.37
2019-01-31T05:45:49.702Z,6.37
2019-01-31T05:46:20.897Z,6.37
2019-01-31T05:46:52.171Z,6.37
2019-01-31T05:47:23.378Z,6.37
2019-01-31T05:47:54.585Z,6.37
2019-01-31T05:48:25.859Z,6.39
2019-01-31T05:48:57.028Z,6.40
2019-01-31T05:49:28.255Z,6.40
2019-01-31T05:49:59.475Z,6.43
2019-01-31T05:50:30.754Z,6.44
2019-01-31T05:51:01.958Z,6.46
2019-01-31T05:51:33.191Z,6.46
2019-01-31T05:52:04.467Z,6.47
2019-01-31T05:52:35.680Z,6.45
2019-01-31T05:53:07.117Z,6.45
2019-01-31T05:53:38.328Z,6.45
2019-01-31T05:54:09.535Z,6.45
2019-01-31T05:54:40.743Z,6.44
2019-01-31T05:55:11.960Z,6.46
2019-01-31T05:55:43.293Z,6.48
2019-01-31T05:56:14.479Z,6.48
2019-01-31T05:56:46.449Z,6.50
2019-01-31T05:57:17.681Z,6.50
2019-01-31T05:57:48.922Z,6.47
2019-01-31T05:58:20.159Z,6.48
2019-01-31T05:58:51.377Z,6.47
2019-01-31T05:59:22.656Z,6.47
2019-01-31T05:59:53.880Z,5.55
2019-01-31T06:00:25.119Z,6.48
2019-01-31T06:00:56.346Z,6.50
2019-01-31T06:01:27.609Z,6.53
2019-01-31T06:01:58.815Z,6.55
2019-01-31T06:02:30.039Z,6.56
2019-01-31T06:03:01.259Z,6.57
2019-01-31T06:03:32.480Z,6.59
2019-01-31T06:04:03.703Z,6.61
2019-01-31T06:04:34.927Z,6.63
2019-01-31T06:05:06.157Z,6.64
2019-01-31T06:05:37.404Z,6.10
2019-01-31T06:06:08.609Z,6.65
2019-01-31T06:06:39.874Z,6.64
2019-01-31T06:07:11.611Z,6.60
2019-01-31T06:07:42.933Z,5.24
2019-01-31T06:08:14.144Z,6.61
2019-01-31T06:08:45.360Z,6.63
2019-01-31T06:09:16.582Z,6.65
2019-01-31T06:09:47.798Z,6.68
2019-01-31T06:10:19.022Z,6.68
2019-01-31T06:10:50.257Z,6.70
2019-01-31T06:11:21.554Z,6.72
2019-01-31T06:11:52.781Z,6.74
2019-01-31T06:12:23.998Z,6.73
2019-01-31T06:12:55.213Z,6.71
2019-01-31T06:13:26.447Z,6.69
2019-01-31T06:13:57.662Z,6.71
2019-01-31T06:14:29.189Z,6.72
2019-01-31T06:15:00.429Z,6.69
2019-01-31T06:15:31.715Z,6.68
2019-01-31T06:16:02.923Z,6.67
2019-01-31T06:16:34.146Z,6.68
2019-01-31T06:17:05.375Z,6.68
2019-01-31T06:17:36.874Z,6.68
2019-01-31T06:18:08.120Z,6.64
2019-01-31T06:18:39.368Z,6.58
2019-01-31T06:19:10.633Z,6.52
2019-01-31T06:19:41.876Z,6.49
2019-01-31T06:20:13.095Z,6.48
2019-01-31T06:20:44.357Z,6.45
2019-01-31T06:21:15.578Z,6.40
2019-01-31T06:21:46.817Z,6.40
2019-01-31T06:22:18.079Z,6.39
2019-01-31T06:22:49.285Z,6.29
2019-01-31T06:23:20.523Z,6.16
2019-01-31T06:23:51.741Z,6.15
2019-01-31T06:24:23.428Z,6.15
2019-01-31T06:24:54.644Z,6.17
2019-01-31T06:25:25.881Z,6.20
2019-01-31T06:25:57.119Z,6.21
2019-01-31T06:26:28.333Z,6.18
2019-01-31T06:26:59.547Z,6.18
2019-01-31T06:27:30.768Z,6.20
2019-01-31T06:28:01.982Z,6.19
2019-01-31T06:28:33.247Z,6.20
2019-01-31T06:29:04.459Z,6.23
2019-01-31T06:29:35.726Z,6.23
2019-01-31T06:30:06.946Z,6.23
2019-01-31T06:30:38.155Z,6.26
2019-01-31T06:31:09.383Z,6.29
2019-01-31T06:31:40.681Z,6.32
2019-01-31T06:32:11.912Z,6.32
2019-01-31T06:32:43.029Z,6.29
2019-01-31T06:33:14.292Z,6.29
2019-01-31T06:33:45.537Z,6.30
2019-01-31T06:34:16.788Z,6.24
2019-01-31T06:34:48.005Z,6.24
2019-01-31T06:35:19.249Z,6.26
2019-01-31T06:35:50.510Z,6.28
2019-01-31T06:36:21.781Z,6.34
2019-01-31T06:36:53.116Z,6.38
2019-01-31T06:37:24.331Z,6.40
2019-01-31T06:37:55.573Z,6.43
2019-01-31T06:38:26.835Z,6.43
2019-01-31T06:38:58.104Z,6.43
2019-01-31T06:39:29.325Z,6.42
2019-01-31T06:40:00.570Z,6.42
2019-01-31T06:40:31.778Z,6.41
2019-01-31T06:41:02.999Z,4.98
2019-01-31T06:41:34.223Z,6.29
2019-01-31T06:42:05.490Z,6.20
2019-01-31T06:42:36.716Z,6.14
2019-01-31T06:43:07.943Z,6.14
2019-01-31T06:43:39.153Z,6.17
2019-01-31T06:44:11.373Z,6.34
2019-01-31T06:44:42.595Z,6.54
2019-01-31T06:45:13.804Z,6.68
2019-01-31T06:45:45.080Z,6.79
2019-01-31T06:46:16.303Z,6.82
2019-01-31T06:46:47.508Z,6.82
2019-01-31T06:47:18.707Z,6.82
2019-01-31T06:47:49.925Z,6.81
2019-01-31T06:48:21.138Z,6.82
2019-01-31T06:48:52.348Z,6.77
2019-01-31T06:49:23.564Z,6.73
2019-01-31T06:49:54.777Z,6.75
2019-01-31T06:50:25.988Z,6.77
2019-01-31T06:50:57.793Z,6.78
2019-01-31T06:51:29.015Z,6.77
2019-01-31T06:52:00.221Z,6.81
2019-01-31T06:52:31.427Z,6.88
2019-01-31T06:53:02.663Z,6.95
2019-01-31T06:53:33.882Z,7.04
2019-01-31T06:54:07.574Z,7.13
2019-01-31T06:54:38.113Z,7.17
2019-01-31T06:55:09.353Z,7.17
2019-01-31T06:55:40.559Z,7.16
2019-01-31T06:56:11.853Z,7.09